createdAt,value
2019-01-09T00:00:16.750Z,101744.28
2019-01-09T00:03:20.138Z,101744.01
2019-01-09T00:06:23.599Z,101739.94
2019-01-09T00:09:27.080Z,101734.09
2019-01-09T00:12:30.413Z,101732.05
2019-01-09T00:15:33.839Z,101739.60
2019-01-09T00:18:37.238Z,101747.03
2019-01-09T00:21:40.647Z,101749.82
2019-01-09T00:24:44.042Z,101746.21
2019-01-09T00:27:47.413Z,101756.41
2019-01-09T00:30:50.838Z,101756.29
2019-01-09T00:33:54.238Z,101754.12
2019-01-09T00:36:57.603Z,101751.67
2019-01-09T00:40:01.046Z,101744.54
2019-01-09T00:43:04.497Z,101739.43
2019-01-09T00:46:07.872Z,101729.56
2019-01-09T00:49:11.269Z,101718.31
2019-01-09T00:52:14.661Z,101726.81
2019-01-09T00:55:18.150Z,101726.99
2019-01-09T00:58:21.589Z,101722.33
2019-01-09T01:01:24.957Z,101722.59
2019-01-09T01:05:46.070Z,101727.60
2019-01-09T01:08:53.743Z,101726.89
2019-01-09T01:12:49.764Z,101730.41
2019-01-09T01:16:06.797Z,101733.55
2019-01-09T01:19:25.951Z,101729.74
2019-01-09T01:26:47.505Z,101741.21
2019-01-09T01:30:02.831Z,101725.55
2019-01-09T01:33:24.176Z,101730.94
2019-01-09T01:36:38.252Z,101733.55
2019-01-09T01:40:06.491Z,101721.97
2019-01-09T01:43:17.329Z,101712.90
2019-01-09T01:47:37.761Z,101705.78
2019-01-09T01:50:52.975Z,101705.14
2019-01-09T01:54:13.571Z,101700.64
2019-01-09T01:59:32.477Z,101705.41
2019-01-09T02:02:57.804Z,101702.95
2019-01-09T02:06:18.888Z,101697.16
2019-01-09T02:09:35.103Z,101708.85
2019-01-09T02:12:49.309Z,101711.84
2019-01-09T02:18:07.224Z,101721.65
2019-01-09T02:21:18.357Z,101717.13
2019-01-09T02:25:33.611Z,101713.26
2019-01-09T02:28:46.824Z,101718.08
2019-01-09T02:32:03.096Z,101717.26
2019-01-09T02:35:06.517Z,101710.43
2019-01-09T02:38:09.860Z,101707.02
2019-01-09T02:41:13.253Z,101711.69
2019-01-09T02:44:16.654Z,101712.69
2019-01-09T02:47:20.061Z,101709.18
2019-01-09T02:50:23.455Z,101714.65
2019-01-09T02:53:26.882Z,101710.90
2019-01-09T02:56:30.279Z,101712.53
2019-01-09T02:59:33.652Z,101719.80
2019-01-09T03:02:37.102Z,101715.07
2019-01-09T03:05:40.508Z,101709.42
2019-01-09T03:08:43.866Z,101699.93
2019-01-09T03:11:47.275Z,101694.36
2019-01-09T03:14:50.692Z,101689.15
2019-01-09T03:17:54.293Z,101689.33
2019-01-09T03:20:57.647Z,101679.25
2019-01-09T03:24:01.124Z,101675.43
2019-01-09T03:27:04.510Z,101672.74
2019-01-09T03:30:08.224Z,101683.75
2019-01-09T03:33:11.622Z,101685.49
2019-01-09T03:36:15.023Z,101686.37
2019-01-09T03:39:18.510Z,101683.25
2019-01-09T03:42:21.923Z,101670.58
2019-01-09T03:45:25.325Z,101669.13
2019-01-09T03:48:28.732Z,101663.55
2019-01-09T03:51:32.095Z,101658.73
2019-01-09T03:54:35.533Z,101659.87
2019-01-09T03:57:38.897Z,101638.36
2019-01-09T04:00:42.319Z,101649.30
2019-01-09T04:03:45.736Z,101639.49
2019-01-09T04:06:49.130Z,101635.56
2019-01-09T04:09:52.482Z,101640.33
2019-01-09T04:12:55.889Z,101637.60
2019-01-09T04:15:59.316Z,101633.47
2019-01-09T04:19:02.701Z,101641.70
2019-01-09T04:22:06.117Z,101641.57
2019-01-09T04:25:09.511Z,101646.14
2019-01-09T04:28:12.904Z,101645.15
2019-01-09T04:31:16.399Z,101643.66
2019-01-09T04:34:19.795Z,101637.85
2019-01-09T04:37:23.200Z,101629.58
2019-01-09T04:40:26.601Z,101625.37
2019-01-09T04:43:30.011Z,101619.99
2019-01-09T04:46:33.433Z,101614.05
2019-01-09T04:49:36.812Z,101612.96
2019-01-09T04:52:40.229Z,101616.36
2019-01-09T04:55:43.604Z,101609.20
2019-01-09T04:58:47.015Z,101614.94
2019-01-09T05:01:50.487Z,101619.17
2019-01-09T05:04:53.940Z,101621.73
2019-01-09T05:07:57.380Z,101615.73
2019-01-09T05:11:00.694Z,101614.85
2019-01-09T05:14:04.164Z,101625.84
2019-01-09T05:17:07.526Z,101629.45
2019-01-09T05:20:10.891Z,101619.48
2019-01-09T05:23:14.294Z,101612.65
2019-01-09T05:26:17.773Z,101605.71
2019-01-09T05:29:21.191Z,101602.65
2019-01-09T05:32:24.739Z,101598.90
2019-01-09T05:35:28.209Z,101607.38
2019-01-09T05:38:31.682Z,101632.54
2019-01-09T05:41:35.117Z,101646.41
2019-01-09T05:44:38.586Z,101664.93
2019-01-09T05:47:42.042Z,101657.90
2019-01-09T05:50:45.502Z,101654.71
2019-01-09T05:53:48.872Z,101663.11
2019-01-09T05:56:52.325Z,101664.60
2019-01-09T05:59:55.812Z,101652.16
2019-01-09T06:02:59.191Z,101649.87
2019-01-09T06:06:02.574Z,101638.40
2019-01-09T06:09:06.630Z,101643.21
2019-01-09T06:12:10.129Z,101644.92
2019-01-09T06:15:13.650Z,101642.42
2019-01-09T06:18:17.184Z,101644.09
2019-01-09T06:21:20.744Z,101642.56
2019-01-09T06:24:24.276Z,101646.70
2019-01-09T06:27:27.810Z,101648.02
2019-01-09T06:30:31.297Z,101646.24
2019-01-09T06:33:34.769Z,101643.71
2019-01-09T06:36:38.314Z,101653.25
2019-01-09T06:39:41.786Z,101655.28
2019-01-09T06:42:45.287Z,101651.16
2019-01-09T06:45:48.779Z,101653.88
2019-01-09T06:48:52.259Z,101647.35
2019-01-09T06:51:55.803Z,101646.13
2019-01-09T06:54:59.258Z,101648.89
2019-01-09T06:58:02.641Z,101643.27
2019-01-09T07:01:06.035Z,101644.82
2019-01-09T07:04:09.458Z,101650.77
2019-01-09T07:07:12.886Z,101646.15
2019-01-09T07:10:16.240Z,101641.28
2019-01-09T07:13:19.647Z,101650.34
2019-01-09T07:16:23.137Z,101647.59
2019-01-09T07:19:26.550Z,101647.14
2019-01-09T07:22:29.978Z,101651.16
2019-01-09T07:25:33.389Z,101666.46
2019-01-09T07:28:36.789Z,101665.08
2019-01-09T07:31:40.251Z,101681.46
2019-01-09T07:34:43.686Z,101678.34
2019-01-09T07:37:47.182Z,101698.10
2019-01-09T07:40:50.690Z,101699.32
2019-01-09T07:43:54.084Z,101692.04
2019-01-09T07:46:57.491Z,101698.10
2019-01-09T07:50:00.969Z,101694.58
2019-01-09T07:53:04.370Z,101699.80
2019-01-09T07:56:07.807Z,101692.03
2019-01-09T07:59:11.308Z,101690.47
2019-01-09T08:02:14.646Z,101695.75
2019-01-09T08:05:18.062Z,101693.40
2019-01-09T08:08:21.511Z,101697.36
2019-01-09T08:11:24.997Z,101697.75
2019-01-09T08:14:28.376Z,101699.84
2019-01-09T08:17:31.766Z,101695.77
2019-01-09T08:20:35.217Z,101701.72
2019-01-09T08:23:38.667Z,101703.57
2019-01-09T08:26:42.109Z,101705.00
2019-01-09T08:29:45.587Z,101712.76
2019-01-09T08:32:49.029Z,101706.73
2019-01-09T08:35:52.506Z,101705.10
2019-01-09T08:38:55.914Z,101713.27
2019-01-09T08:41:59.318Z,101714.33
2019-01-09T08:45:02.831Z,101717.57
2019-01-09T08:48:06.343Z,101724.60
2019-01-09T08:51:09.905Z,101726.55
2019-01-09T08:54:13.402Z,101720.28
2019-01-09T08:57:16.830Z,101725.51
2019-01-09T09:00:20.369Z,101734.51
2019-01-09T09:03:23.880Z,101734.07
2019-01-09T09:06:27.374Z,101740.86
2019-01-09T09:09:30.911Z,101741.98
2019-01-09T09:12:34.395Z,101729.49
2019-01-09T09:15:37.843Z,101735.56
2019-01-09T09:18:41.342Z,101742.01
2019-01-09T09:21:44.725Z,101746.44
2019-01-09T09:24:48.441Z,101763.66
2019-01-09T09:27:51.892Z,101762.06
2019-01-09T09:30:55.382Z,101756.76
2019-01-09T09:33:58.942Z,101754.50
2019-01-09T09:37:02.355Z,101758.05
2019-01-09T09:40:06.308Z,101762.05
2019-01-09T09:43:09.950Z,101763.10
2019-01-09T09:46:13.365Z,101768.35
2019-01-09T09:49:17.037Z,101773.95
2019-01-09T09:52:20.358Z,101773.95
2019-01-09T09:55:23.826Z,101771.15
2019-01-09T09:58:27.329Z,101787.10
2019-01-09T10:01:30.859Z,101783.80
2019-01-09T10:04:34.332Z,101794.78
2019-01-09T10:07:37.834Z,101796.43
2019-01-09T10:10:41.538Z,101798.64
2019-01-09T10:13:45.079Z,101801.16
2019-01-09T10:16:48.477Z,101791.10
2019-01-09T10:19:51.983Z,101784.31
2019-01-09T10:22:55.492Z,101790.00
2019-01-09T10:25:58.992Z,101780.46
2019-01-09T10:29:02.497Z,101782.42
2019-01-09T10:32:05.959Z,101775.80
2019-01-09T10:35:09.445Z,101782.82
2019-01-09T10:38:12.848Z,101781.00
2019-01-09T10:41:16.234Z,101786.44
2019-01-09T10:44:19.652Z,101776.11
2019-01-09T10:47:23.022Z,101779.45
2019-01-09T10:50:26.520Z,101779.92
2019-01-09T10:53:29.938Z,101782.42
2019-01-09T10:56:33.381Z,101779.81
2019-01-09T10:59:36.836Z,101775.75
2019-01-09T11:02:40.290Z,101781.58
2019-01-09T11:05:43.865Z,101781.51
2019-01-09T11:08:47.409Z,101763.69
2019-01-09T11:11:50.726Z,101764.73
2019-01-09T11:14:54.153Z,101773.97
2019-01-09T11:17:57.644Z,101769.47
2019-01-09T11:21:01.195Z,101782.16
2019-01-09T11:24:04.734Z,101768.79
2019-01-09T11:27:08.141Z,101768.57
2019-01-09T11:30:13.459Z,101765.98
2019-01-09T11:33:16.894Z,101760.86
2019-01-09T11:36:20.402Z,101756.61
2019-01-09T11:39:24.099Z,101755.62
2019-01-09T11:42:27.545Z,101749.74
2019-01-09T11:45:31.065Z,101746.10
2019-01-09T11:48:34.523Z,101738.31
2019-01-09T11:51:37.980Z,101738.31
2019-01-09T11:54:41.710Z,101730.17
2019-01-09T11:57:44.913Z,101724.52
2019-01-09T12:00:48.408Z,101726.91
2019-01-09T12:03:51.836Z,101726.06
2019-01-09T12:06:56.399Z,101721.03
2019-01-09T12:09:59.906Z,101722.10
2019-01-09T12:13:03.287Z,101724.95
2019-01-09T12:16:08.228Z,101730.54
2019-01-09T12:19:10.407Z,101727.71
2019-01-09T12:22:13.988Z,101726.98
2019-01-09T12:25:17.456Z,101725.91
2019-01-09T12:28:20.846Z,101734.55
2019-01-09T12:31:24.255Z,101728.68
2019-01-09T12:34:27.732Z,101723.31
2019-01-09T12:37:31.253Z,101721.05
2019-01-09T12:40:35.664Z,101725.25
2019-01-09T12:43:39.322Z,101726.87
2019-01-09T12:46:43.743Z,101730.79
2019-01-09T12:49:47.142Z,101733.32
2019-01-09T12:52:52.582Z,101729.85
2019-01-09T12:55:53.996Z,101726.95
2019-01-09T12:58:57.338Z,101731.67
2019-01-09T13:02:00.726Z,101739.67
2019-01-09T13:05:04.632Z,101721.13
2019-01-09T13:08:08.052Z,101730.32
2019-01-09T13:11:12.458Z,101726.34
2019-01-09T13:14:15.899Z,101726.67
2019-01-09T13:17:19.244Z,101723.91
2019-01-09T13:20:22.705Z,101728.79
2019-01-09T13:23:26.129Z,101740.10
2019-01-09T13:26:29.485Z,101723.94
2019-01-09T13:29:32.863Z,101737.19
2019-01-09T13:32:36.256Z,101742.57
2019-01-09T13:35:40.637Z,101744.87
2019-01-09T13:38:44.030Z,101750.66
2019-01-09T13:41:47.504Z,101748.85
2019-01-09T13:44:51.004Z,101759.01
2019-01-09T13:47:54.623Z,101778.08
2019-01-09T13:50:58.006Z,101753.30
2019-01-09T13:54:01.496Z,101752.75
2019-01-09T13:57:05.055Z,101747.41
2019-01-09T14:00:11.707Z,101750.58
2019-01-09T14:03:15.130Z,101750.56
2019-01-09T14:06:18.522Z,101750.95
2019-01-09T14:09:21.926Z,101755.81
2019-01-09T14:12:25.296Z,101751.92
2019-01-09T14:15:28.752Z,101750.16
2019-01-09T14:18:32.142Z,101756.34
2019-01-09T14:21:35.491Z,101765.69
2019-01-09T14:24:38.926Z,101766.24
2019-01-09T14:27:42.278Z,101765.24
2019-01-09T14:30:45.827Z,101774.43
2019-01-09T14:33:49.271Z,101770.70
2019-01-09T14:36:52.796Z,101774.08
2019-01-09T14:39:56.264Z,101778.11
2019-01-09T14:42:59.665Z,101784.42
2019-01-09T14:46:03.258Z,101789.54
2019-01-09T14:49:06.615Z,101794.03
2019-01-09T14:52:10.076Z,101795.13
2019-01-09T14:55:13.477Z,101797.97
2019-01-09T14:58:16.836Z,101801.16
2019-01-09T15:01:20.244Z,101804.07
2019-01-09T15:04:23.598Z,101804.05
2019-01-09T15:07:27.115Z,101812.43
2019-01-09T15:10:31.623Z,101809.56
2019-01-09T15:13:34.593Z,101813.10
2019-01-09T15:16:37.957Z,101817.62
2019-01-09T15:19:41.455Z,101820.07
2019-01-09T15:22:44.930Z,101822.24
2019-01-09T15:25:49.125Z,101829.86
2019-01-09T15:28:51.715Z,101836.86
2019-01-09T15:31:55.067Z,101851.26
2019-01-09T15:34:58.419Z,101856.00
2019-01-09T15:38:01.919Z,101861.43
2019-01-09T15:41:05.397Z,101861.13
2019-01-09T15:44:08.811Z,101863.07
2019-01-09T15:47:12.265Z,101865.43
2019-01-09T15:50:17.371Z,101873.62
2019-01-09T15:53:20.833Z,101875.62
2019-01-09T15:56:24.231Z,101879.32
2019-01-09T15:59:27.577Z,101881.58
2019-01-09T16:02:31.105Z,101879.70
2019-01-09T16:05:34.509Z,101878.77
2019-01-09T16:08:37.997Z,101882.56
2019-01-09T16:11:41.411Z,101887.34
2019-01-09T16:14:44.788Z,101889.17
2019-01-09T16:17:48.276Z,101893.38
2019-01-09T16:20:52.981Z,101890.66
2019-01-09T16:23:56.345Z,101894.62
2019-01-09T16:26:59.748Z,101903.64
2019-01-09T16:30:03.243Z,101907.94
2019-01-09T16:33:07.007Z,101911.53
2019-01-09T16:36:10.371Z,101921.32
2019-01-09T16:39:13.769Z,101920.19
2019-01-09T16:42:17.161Z,101924.88
2019-01-09T16:45:20.560Z,101924.66
2019-01-09T16:48:24.099Z,101920.48
2019-01-09T16:51:28.075Z,101921.32
2019-01-09T16:54:31.453Z,101921.84
2019-01-09T16:57:34.904Z,101923.55
2019-01-09T17:00:38.438Z,101927.06
2019-01-09T17:03:41.801Z,101937.37
2019-01-09T17:06:45.201Z,101939.79
2019-01-09T17:09:48.852Z,101937.94
2019-01-09T17:12:52.394Z,101943.01
2019-01-09T17:15:56.404Z,101952.12
2019-01-09T17:18:59.861Z,101954.29
2019-01-09T17:22:04.412Z,101955.47
2019-01-09T17:25:08.382Z,101955.55
2019-01-09T17:28:12.119Z,101960.88
2019-01-09T17:31:15.764Z,101959.74
2019-01-09T17:34:19.275Z,101956.96
2019-01-09T17:37:23.778Z,101956.78
2019-01-09T17:40:28.010Z,101954.58
2019-01-09T17:43:33.970Z,101952.41
2019-01-09T17:46:38.537Z,101955.10
2019-01-09T17:49:44.645Z,101966.78
2019-01-09T17:52:48.060Z,101962.50
2019-01-09T17:55:56.108Z,101974.04
2019-01-09T17:59:01.214Z,101973.91
2019-01-09T18:02:06.045Z,101977.92
2019-01-09T18:05:10.492Z,101986.16
2019-01-09T18:08:14.428Z,101987.92
2019-01-09T18:11:17.866Z,101988.85
2019-01-09T18:14:21.250Z,101990.83
2019-01-09T18:17:24.709Z,101999.69
2019-01-09T18:20:28.491Z,102003.88
2019-01-09T18:23:32.035Z,102008.28
2019-01-09T18:26:35.641Z,102013.11
2019-01-09T18:29:39.293Z,102016.33
2019-01-09T18:32:49.051Z,102019.64
2019-01-09T18:36:35.938Z,102019.85
2019-01-09T18:39:49.107Z,102026.55
2019-01-09T18:45:04.904Z,102030.03
2019-01-09T18:48:19.391Z,102034.71
2019-01-09T18:51:47.840Z,102040.03
2019-01-09T18:54:51.348Z,102038.62
2019-01-09T18:57:54.883Z,102039.53
2019-01-09T19:00:58.464Z,102043.94
2019-01-09T19:04:02.140Z,102046.28
2019-01-09T19:07:10.464Z,102045.31
2019-01-09T19:10:17.425Z,102048.30
2019-01-09T19:13:21.052Z,102051.65
2019-01-09T19:16:24.755Z,102054.25
2019-01-09T19:19:28.250Z,102053.15
2019-01-09T19:26:10.029Z,102062.80
2019-01-09T19:29:15.770Z,102072.97
2019-01-09T19:32:19.345Z,102074.78
2019-01-09T19:35:23.896Z,102079.43
2019-01-09T19:38:27.647Z,102083.65
2019-01-09T19:41:31.152Z,102088.98
2019-01-09T19:44:34.735Z,102094.35
2019-01-09T19:47:38.279Z,102100.20
2019-01-09T19:50:42.552Z,102097.92
2019-01-09T19:53:45.505Z,102103.14
2019-01-09T20:00:26.523Z,102119.91
2019-01-09T20:03:30.032Z,102124.26
2019-01-09T20:06:33.542Z,102125.25
2019-01-09T20:09:37.095Z,102122.03
2019-01-09T20:12:41.893Z,102125.49
2019-01-09T20:15:45.518Z,102127.81
2019-01-09T20:18:50.058Z,102133.56
2019-01-09T20:21:52.472Z,102135.06
2019-01-09T20:24:56.095Z,102137.55
2019-01-09T20:27:59.545Z,102137.22
2019-01-09T20:31:03.082Z,102135.88
2019-01-09T20:34:06.545Z,102137.15
2019-01-09T20:37:10.113Z,102140.80
2019-01-09T20:40:13.698Z,102147.00
2019-01-09T20:43:21.045Z,102151.28
2019-01-09T20:46:24.701Z,102155.16
2019-01-09T20:49:28.961Z,102154.89
2019-01-09T20:52:33.389Z,102162.11
2019-01-09T20:55:36.864Z,102167.17
2019-01-09T20:58:40.307Z,102165.56
2019-01-09T21:01:43.758Z,102164.24
2019-01-09T21:04:47.763Z,102163.49
2019-01-09T21:07:51.354Z,102159.47
2019-01-09T21:10:54.936Z,102163.02
2019-01-09T21:13:58.382Z,102168.49
2019-01-09T21:17:02.191Z,102173.06
2019-01-09T21:20:08.687Z,102175.27
2019-01-09T21:23:12.359Z,102174.42
2019-01-09T21:26:15.860Z,102176.16
2019-01-09T21:29:19.347Z,102185.70
2019-01-09T21:32:23.459Z,102191.56
2019-01-09T21:35:26.861Z,102186.22
2019-01-09T21:38:30.548Z,102194.09
2019-01-09T21:41:34.046Z,102197.49
2019-01-09T21:44:38.209Z,102199.57
2019-01-09T21:47:42.308Z,102203.65
2019-01-09T21:50:45.913Z,102212.73
2019-01-09T21:53:52.274Z,102217.46
2019-01-09T21:56:56.416Z,102215.50
2019-01-09T22:00:00.837Z,102222.41
2019-01-09T22:03:04.563Z,102223.64
2019-01-09T22:06:08.094Z,102226.98
2019-01-09T22:09:11.468Z,102223.00
2019-01-09T22:12:15.049Z,102223.06
2019-01-09T22:15:19.588Z,102224.75
2019-01-09T22:18:23.003Z,102222.96
2019-01-09T22:21:26.497Z,102231.55
2019-01-09T22:24:30.038Z,102234.79
2019-01-09T22:27:33.454Z,102235.07
2019-01-09T22:30:36.982Z,102240.01
2019-01-09T22:33:40.376Z,102236.65
2019-01-09T22:36:43.771Z,102236.35
2019-01-09T22:39:47.231Z,102239.17
2019-01-09T22:42:50.755Z,102243.49
2019-01-09T22:45:54.173Z,102246.06
2019-01-09T22:48:57.675Z,102249.27
2019-01-09T22:52:02.174Z,102250.49
2019-01-09T22:55:05.715Z,102249.59
2019-01-09T22:58:09.102Z,102252.90
2019-01-09T23:01:17.869Z,102252.76
2019-01-09T23:04:21.268Z,102249.02
2019-01-09T23:07:24.637Z,102251.06
2019-01-09T23:10:28.040Z,102248.57
2019-01-09T23:13:31.440Z,102250.43
2019-01-09T23:16:34.861Z,102253.30
2019-01-09T23:19:38.230Z,102262.58
2019-01-09T23:22:41.667Z,102266.65
2019-01-09T23:25:45.062Z,102269.80
2019-01-09T23:28:48.441Z,102275.49
2019-01-09T23:31:51.870Z,102275.01
2019-01-09T23:34:55.377Z,102276.81
2019-01-09T23:37:58.701Z,102282.44
2019-01-09T23:41:02.107Z,102282.18
2019-01-09T23:44:05.589Z,102284.38
2019-01-09T23:47:08.999Z,102287.61
2019-01-09T23:50:12.497Z,102291.53
2019-01-09T23:53:16.007Z,102297.61
2019-01-09T23:56:19.401Z,102299.99
2019-01-09T23:59:22.820Z,102305.05
